ISABELLA DAM (ISB)

Elevation: 2635' · KERN R basin · Operator: US Army Corps of Engineers

Provisional data, subject to change.
Query executed Thursday at 14:04:02   clock

Select a sensor type for a plot of data.
Note: Reservoir Flows are daily averages.

Earlier

Date RES ELE    STORAGE    RES CHG    TOC STO    ABV TOC    OUTFLOW    INFLOW    FNF    PPT INC    PPTINC4    TEMP MN    TEMP MX    WINDLEN    EVP PAN   
 FEET   AF   AF   AF   AF   CFS   CFS   CFS   INCHES   INCHES   DEG F   DEG F   MILES   INCHES  
02/06/2015 2529.64 45063 47 245000 -199937 114 147 147 0.00 0.00 5 24 87 0.13
02/07/2015 2529.71 45229 166 245000 -199771 104 192 192 0.22 0.00 12 17 120 0.07
02/08/2015 2529.94 45776 547 245000 -199224 108 392 392 0.03 0.22 8 23 82 0.12
02/09/2015 2530.14 46255 479 245000 -198745 140 391 391 0.00 0.02 11 18 190 0.14
02/10/2015 2530.27 46569 314 245000 -198431 188 355 355 0.00 0.00 6 20 103 0.13
02/11/2015 2530.33 46714 145 245000 -198286 200 287 287 0.00 0.00 5 23 201 0.19
02/12/2015 2530.37 46811 97 245000 -198189 185 249 249 0.00 0.00 7 24 199 0.21
02/13/2015 2530.43 46957 146 245000 -198043 155 239 239 0.00 0.00 5 26 82 0.15
02/14/2015 2530.50 47127 170 245000 -197873 147 244 244 0.00 0.00 5 25 98 0.15
02/15/2015 2530.58 47323 196 245000 -197677 146 255 255 0.00 0.00 5 25 90 0.15
02/16/2015 2530.64 47470 147 245000 -197530 147 233 233 0.00 0.00 6 26 101 0.17
02/17/2015 2530.69 47593 123 245000 -197407 162 235 235 0.00 0.00 4 25 86 0.15
02/18/2015 2530.70 47617 24 245000 -197383 212 237 237 0.00 0.00 5 26 132 0.18
02/19/2015 2530.69 47593 -24 245000 -197407 234 233 233 0.00 0.00 4 23 141 0.15
02/20/2015 2530.68 47568 -25 245000 -197432 234 232 232 0.00 0.00 4 21 103 0.14
02/21/2015 2530.65 47494 -74 245000 -- -- -- 209 -- 0.00 -- -- -- --
02/22/2015 2530.74 47715 221 245000 -197285 236 354 354 1.31 0.00 4 15 156 0.09
02/23/2015 2530.77 47789 74 245000 -197211 246 289 289 0.27 0.65 3 12 103 0.08
02/24/2015 2530.75 47740 -49 245000 -197260 265 248 248 0.00 0.14 0 15 108 0.11
02/25/2015 2530.71 47642 -- 245000 -197358 265 225 225 0.00 0.00 3 18 112 0.13
02/26/2015 2530.70 47617 -25 245000 -197383 243 239 239 0.00 0.00 3 17 149 0.13
02/27/2015 2530.71 47642 25 245000 -197358 225 246 246 0.01 0.00 7 15 188 0.12
02/28/2015 2530.72 47666 24 245000 -197334 225 244 244 0.02 0.06 5 13 122 0.10
03/01/2015 2530.68 47568 -98 250297 -202729 225 181 181 0.00 0.00 3 12 141 0.09
03/02/2015 2530.67 47543 -25 255593 -208050 -- -- 217 -- 0.00 -- -- -- --
03/03/2015 2530.66 47519 -24 260890 -213371 -- -- -- -- 0.12 -- -- -- --
03/04/2015 2530.65 47494 -25 266187 -218693 -- -- -- -- 0.00 -- -- -- --
03/05/2015 -- -- -- -- -- -- -- -- -- 0.00 -- -- -- --

Later | Latest

Warning! This data is preliminary and subject to revision.

Show ISB Map | Plot ISB Data | 1 Month ISB Data | Real-Time ISB Data | ISB Info